Мелкие происшествия

Реклама
Д

Димулька

Новичок
Спасибо. По номеру борта открывается хорошо. Странно работает поисковик у FR. Если ищешь по номеру рейса не ищет ни RL8765, ни ABG8765. А если найти по номеру борта, а затем в полученном списке кликнуть по "RL8765" то находит рейс и загружает.
 
Yustas

Yustas

Местный
Что такое не прёт:
В США авиалайнер трижды возвращался в аэропорт из-за неисправностей

Авиалайнер американской компании Hawaiian Airlines, выполнявший рейс из международного аэропорта Лос-Анджелеса, штат Калифорния, в аэропорт Кахулуи на острове Мауи, штат Гавайи, трижды за день возвращался в аэропорт вылета из-за технических неполадок. Об этом сообщает телеканал CNN.

По данным телеканала, самолет дважды поднимался в воздух, после чего возвращался в аэропорт. В третий раз он выруливал к взлетной полосе, когда взлет было решено прервать. После этого пассажирам объявили об отмене рейса. Старший менеджер авиакомпании Алекс Да Силва пояснил, что в каждом из трех случаев были выявлены разные, не связанные между собой неполадки систем.

Подробнее на РБК
 
Д

Димулька

Новичок
Товарищи. Интересуюсь судьбой двух бортов. Может кто в курсе?
  1. VQ-BGR - 13 рейс отроду. Ещё краска не обсохла). Не летает с 23 декабря (заглох один движок на эшелоне).
  2. VQ-BUD. После того как 22 января в Иркутске передумал взлетать, тоже пропал с радаров.
 
Yustas

Yustas

Местный
Товарищи. Интересуюсь судьбой двух бортов. Может кто в курсе?
  1. VQ-BGR - 13 рейс отроду. Ещё краска не обсохла). Не летает с 23 декабря (заглох один движок на эшелоне).
  2. VQ-BUD. После того как 22 января в Иркутске передумал взлетать, тоже пропал с радаров.
Не совсем по адресу ваше сообщение. Посмотрите в соответствующих ветках: тут и тут
 
Последнее редактирование:
lopast56

lopast56

Старожил
Вроде еще не было
 
Блэка

Блэка

Бронекопытец
Самолет укатился с места стоянки в Домодедово

В Домодедово самолет укатился с места стоянки, сообщили РБК в пресс-службе московского аэропорта. Там заявили, что зафиксировали «незначительное передвижение воздушного судна».

Самолет по согласованию с авиакомпанией вернули на место стоянки, повреждений он не получил.

По информации телеканала РЕН ТВ, инцидент произошел в ночь на 2 января. Речь идет о самолете Airbus A321, который выкатился на грунт через междурядье совмещенного перрона. Лайнер был без пилота.

Какой именно авиакомпании принадлежал самолет, не уточняется. Сообщается, что перед этим он выполнил рейс по маршруту Сочи — Москва.

Подробнее на РБК:
 
kepesh

kepesh

Старожил
Вчерашний вечерний рейс BEG-SVO сразу после взлёта в Будапеште приземлили.из-за задымления. Упоминания есть только в укропрессе, что странно.
 
Реклама
ШБЖ

ШБЖ

Старожил

Boing 787 JA870J, выполнял рейс JL740 из международного аэропорта Дели (DEL) в Токио-Нарита 31 января. После посадки левая стойка попала на обледеневший участок взлетно-посадочной полосы, что привело к неуправляемому скольжению самолета с ВПП в мягкую землю.
 
ALEX-72

ALEX-72

ДРЕВНИЙ
Вчерашний вечерний рейс BEG-SVO сразу после взлёта в Будапеште приземлили.из-за задымления. Упоминания есть только в укропрессе, что странно.
A320 VP-BMF НА МАРШРУТЕ ИНЦ.-Z ГГ УУУКЫЛЫЬ 032047 УУУУАФЛИ 03.02.19Г. Р.2097 БЕЛГРАД - ШЕРЕМЕТЬЕВО A320 VP BMF. АЭРОФЛОТ ВРЕМЯ 21.00 МСК. ПАСС.98 ПОСЛЕ ВЫЛЕТА ИЗ АЭРОПОРТА Г. БЕЛГРАД, В НАБОРЕ ВЫСОТЫ, НА FL150-FL200, В КАБИНЕ ПИЛОТОВ ЗАМЕ4ЕН ЗАПАХ ГАРИ И ДЫМ. ОТ СТАРШЕГО БОРТПРОВОДНИКА ПОЛУ4ЕНА ИНФОРМАЦИЯ, 4ТО В ПЕРДНЕМ ВЕСТИБЮЛЕ ПАССАЖИРСКОГО САЛОНА ТАКЖЕ ЗАМЕ4ЕН ЗАПАХ ГАРИ И ДЫМ. ЭКИПАЖЕМ ПРИНЯТО РЕШЕНИЕ О ВЫПОЛНЕНИИ ПОСАДКИ В АЭРОПОРТУ Г. БУДАПЕШТ. ПОСАДКА БЛАГОПОЛУ4НО. ВС ОТСТРАНЕНО ОТ ПОЛЕТОВ. ПРОВОДИТСЯ ОЦЕНКА ТЕХНИ4ЕСКОГО СОСТОЯНИЯ.
 
ALEX-72

ALEX-72

ДРЕВНИЙ
АS-355 RА-07205 USTL ТЮМЕНЬ (ПЛЕХАНОВО) Р-Н ИНЦ.-199 ГГ УУУКЫЛЫИ 051219 УСТУЗЬУГ
ПЕРВОНА4АЛЬНОЕ ДОНЕСЕНИЕ АВИАЦИОННЫЙ ИНЦИДЕНТ 05.02.2019. 09:52 МЕСТНОГО ВРЕМЕНИ (04.52 UTC), УДАЛЕНИЕ 20 КМ ОТ АЭРОДРОМА ПЛЕХАНОВО (ТЮМЕНЬ), ПОСАДО4НАЯ ПЛОЩАДКА, ПОДОБРАННАЯ С ВОЗДУХА АS-355 RА-07205, ЗАВОДСКОЙ НОМЕР 5792 ВЛАДЕЛЕЦ/ЭКСПЛУАТАНТ - АО ЮТЭЙР - ВЕРТОЛЕТНЫЕ УСЛУГИ МЕТЕОУСЛОВИЯ: ВИДИМОСТЬ 10 КМ, ТЕМПЕРАТУРА - 33ГРС, ВЕТЕР 340 ГРАДУСОВ 5 М/СЕК, ОБЛА4НОСТЬ 400 МЕТРОВ РЕЙС NFТ 9704 ПЛЕХАНОВО - ТОБОЛЬСК ОБСТОЯТЕЛЬСТВА: 4ЕРЕЗ 5 МИНУТ ПОСЛЕ ВЗЛЕТА КВС ОЩУТИЛ НЕАДЕКВАТНОЕ УПРАВЛЕНИЕ ВЕРТОЛЕТОМ ОТ РУ4КИ ЦИКЛИ4ЕСКОГО ШАГА В ПРОДОЛЬНОМ НАПРАВЛЕНИИ. КВС ПРИНЯЛ РЕШЕНИЕ ПРОИЗВЕСТИ ПОСАДКУ НА ПЛОЩАДКУ, ПОДОБРАННУЮ С ВОЗДУХА. ПАРАМЕТРЫ РАБОТЫ ДВИГАТЕЛЕЙ И СИСТЕМ В ТУ. ЭКИПАЖ 1, ИТС 1, ПАССАЖИРОВ, ГРУЗА НЕ БЫЛО ЭКИПАЖ НЕ ПОСТРАДАЛ, НА ВОЗДУШНОМ СУДНЕ ПОВРЕЖДЕНИЙ ПРИ ПЕРВОНА4АЛЬНОМ ОСМОТРЕ НЕ ОБНАРУЖЕНО.
Фактически в Тюмени утром было -38 по Цельсию. Холодновато однако для АS-355.....
 
ALEX-72

ALEX-72

ДРЕВНИЙ
Дрифт "Ямала" в Домодедово....
RRJ-95LR100 RA-89073 UUDD ДОМОДЕДОВО ИНЦ.-Z ГГ УУУКЫЛЫЬ 070343 УСТРЛЛМИ АВИАЦИОННЫЙ ИНЦИДЕНТ.
- 06.02.2019, А/П ДОМОДЕДОВО, ПОСАДКА В 17.03 UTC (20.03 МЕСТНОГО ВРЕМЕНИ). - RRJ-95LR-100 RA-89073, ЗАВОДСКОЙ НОМЕР 95116, СОБСТВЕННИК И АРЕНДОДАТЕЛЬ ПАО =ГОСУДАРСТВЕННАЯ ТРАНСПОРТНАЯ ЛИЗИНГОВАЯ КОМПАНИЯ=. - ЭКСПЛУАТАНТ АО =АТК =ЯМАЛ=.
- МЕТЕОУСЛОВИЯ: UUDD 061500Z VRB 01MPS 3900 BR OVC 004 M01/M02 Q1017 R88/550293 TEMPO -FZDZ UUDD 061530Z 30002MPS 240V350 2600 -FZDZ BR OVC 004 M01/M02 Q1017 R88/550293 TEMPO 1500 FZDZ BR UUDD 061600Z 31002MPS 3600 -FZDZ BR OVC 004 M01/M02 Q1017 R88/550293 TEMPO 1500 FZDZ BR UUDD 061630Z 31003MPS 4000 BR SCT004 OVC016 M01/M02 Q1017 R88/550293 TEMPO 1500 FZDZ BR UUDD 061700Z 32003MPS 4700 BR SCT004 OVC016 M01/M02 Q1016 R88/550293 TEMPO 1500 FZDZ BR UUDD 061730Z 30004MPS 4000 BR SCT004 OVC016 M01/M03 Q1016 WS R 32L R88/550293 NOSIG
  • РЕЙС ЛА-243 ПО МАРШРУТУ ТЮМЕНЬ - ДОМОДЕДОВО. - ПОСЛЕ ПОСАДКИ В АЭРОПОРТУ НАЗНА4ЕНИЯ, ВО ВРЕМЯ РУЛЕНИЯ ПО РД А10 К МЕСТУ СТОЯНКИ М22, ИЗ-ЗА НАЛИ4ИЯ ЛЬДА НА РД, ПРОИЗОШЛА ПОТЕРЯ УПРАВЛЯЕМОСТИ ВОЗДУШНОГО СУДНА НА ЗЕМЛЕ. В СВЯЗИ С ТЕМ, 4ТО СИСТЕМА ТОРМОЖЕНИЯ В ДАННЫХ УСЛОВИЯХ БЫЛА НЕЭФФЕКТИВНА, ЭКИПАЖЕМ БЫЛА ПРЕДПРИНЯТА ПОПЫТКА ОСТАНОВИТЬ САМОЛЕТ ДОПОЛНИТЕЛЬНО С ИСПОЛЬЗОВАНИЕМ РЕВЕРСА ТЯГИ ОБОИХ ДВИГАТЕЛЕЙ В РЕЖИМЕ MAX. НЕСМОТРЯ НА ПРИНЯТЫЕ СО СТОРОНЫ ЭКИПАЖА ДЕЙСТВИЯ, ВОЗДУШНОЕ СУДНО ПРОДОЛЖИЛО НЕУПРАВЛЯЕМОЕ ДВИЖЕНИЕ ДО СТОЛКНОВЕНИЯ С МА4ТОЙ ОСВЕЩЕНИЯ. ПОВРЕЖДЕНЫ ЗАКОНЦОВКА И ПРЕДКРЫЛОК ПРАВОГО ПОЛУКРЫЛА.
  • НА БОРТУ ВОЗДУШНОГО СУДНА НАХОДИЛОСЬ 58 ПАССАЖИРОВ, 2 4ЛЕНА ЛЕТНОГО ЭКИПАЖА И 3 БОРТПРОВОДНИКА.
  • ПОСТРАДАВШИХ НЕТ.
ПРИ ПРОВЕДЕНИИ ПЕРВОНА4АЛЬНЫХ ДЕЙСТВИЙ, НА РД А10 АЭРОДРОМА ДОМОДЕДОВО ЗАФИКСИРОВАН ГОЛОЛЕД.
 
A

Alex72

Местный
Думаю, что это за а/п, говорить не надо?

Тут - с другого ракурса.
 
Последнее редактирование:
Reactions: svv
Stalevar

Stalevar

Старожил
Каток на полосе - у него не было шансов. Скорость высокая.
 
Пятисотый

Пятисотый

пятая колонна
Думаю, что это за а/п, говорить не надо?
похоже, Куршевель 1850 ? Там полоса, помню, с характерным вертикальным изломом. Создается впечатление, что он сел в конце полосы - на горизонтальную часть и остатка полосы не хватило. 😕
 
Реклама